createdAt,value
2022-08-07T00:00:36.258Z,100.00
2022-08-07T00:03:08.726Z,100.00
2022-08-07T00:05:36.283Z,100.00
2022-08-07T00:08:05.218Z,100.00
2022-08-07T00:10:34.908Z,100.00
2022-08-07T00:13:23.523Z,100.00
2022-08-07T00:15:52.558Z,100.00
2022-08-07T00:18:24.398Z,100.00
2022-08-07T00:20:57.495Z,100.00
2022-08-07T00:23:30.210Z,100.00
2022-08-07T00:26:00.237Z,100.00
2022-08-07T00:28:33.572Z,100.00
2022-08-07T00:31:06.115Z,100.00
2022-08-07T00:33:39.795Z,100.00
2022-08-07T00:36:08.301Z,100.00
2022-08-07T00:38:36.768Z,100.00
2022-08-07T00:41:10.004Z,100.00
2022-08-07T00:43:58.951Z,100.00
2022-08-07T00:46:28.042Z,100.00
2022-08-07T00:48:54.555Z,100.00
2022-08-07T00:51:21.553Z,100.00
2022-08-07T00:53:50.730Z,100.00
2022-08-07T00:56:30.283Z,100.00
2022-08-07T00:58:57.571Z,100.00
2022-08-07T01:01:24.349Z,100.00
2022-08-07T01:03:56.119Z,100.00
2022-08-07T01:06:29.591Z,100.00
2022-08-07T01:08:58.643Z,100.00
2022-08-07T01:12:28.076Z,100.00
2022-08-07T01:14:17.132Z,100.00
2022-08-07T01:16:48.889Z,100.00
2022-08-07T01:19:18.992Z,100.00
2022-08-07T01:21:48.333Z,100.00
2022-08-07T01:24:18.776Z,100.00
2022-08-07T01:26:52.187Z,100.00
2022-08-07T01:29:20.136Z,100.00
2022-08-07T01:31:48.846Z,100.00
2022-08-07T01:34:15.650Z,100.00
2022-08-07T01:36:44.112Z,100.00
2022-08-07T01:39:11.409Z,100.00
2022-08-07T01:41:40.802Z,100.00
2022-08-07T01:44:26.131Z,100.00
2022-08-07T01:46:53.335Z,100.00
2022-08-07T01:49:22.278Z,100.00
2022-08-07T01:52:03.316Z,100.00
2022-08-07T01:54:37.187Z,100.00
2022-08-07T01:57:20.428Z,100.00
2022-08-07T02:00:03.207Z,100.00
2022-08-07T02:03:11.962Z,100.00
2022-08-07T02:05:47.908Z,100.00
2022-08-07T02:08:25.492Z,100.00
2022-08-07T02:10:58.007Z,100.00
2022-08-07T02:13:57.732Z,100.00
2022-08-07T02:16:18.160Z,100.00
2022-08-07T02:18:51.110Z,100.00
2022-08-07T02:21:19.761Z,100.00
2022-08-07T02:23:47.842Z,100.00
2022-08-07T02:26:32.654Z,100.00
2022-08-07T02:29:03.414Z,100.00
2022-08-07T02:31:32.788Z,100.00
2022-08-07T02:34:03.612Z,100.00
2022-08-07T02:36:39.426Z,100.00
2022-08-07T02:39:09.327Z,100.00
2022-08-07T02:41:50.808Z,100.00
2022-08-07T02:44:23.885Z,100.00
2022-08-07T02:46:56.283Z,100.00
2022-08-07T02:49:28.887Z,100.00
2022-08-07T02:52:17.185Z,99.59
2022-08-07T02:54:50.588Z,98.74
2022-08-07T02:57:22.253Z,95.60
2022-08-07T02:59:55.174Z,95.73
2022-08-07T03:02:28.181Z,97.48
2022-08-07T03:04:55.631Z,95.96
2022-08-07T03:08:05.368Z,93.25
2022-08-07T03:10:10.149Z,91.43
2022-08-07T03:12:41.916Z,90.23
2022-08-07T03:15:10.827Z,87.07
2022-08-07T03:17:53.587Z,87.47
2022-08-07T03:20:23.996Z,86.10
2022-08-07T03:22:52.708Z,86.33
2022-08-07T03:25:21.350Z,85.16
2022-08-07T03:28:09.174Z,83.57
2022-08-07T03:30:37.474Z,83.94
2022-08-07T03:33:08.017Z,83.62
2022-08-07T03:35:50.015Z,82.67
2022-08-07T03:38:20.901Z,81.34
2022-08-07T03:40:57.234Z,82.05
2022-08-07T03:43:26.484Z,82.09
2022-08-07T03:45:53.729Z,81.75
2022-08-07T03:48:20.866Z,81.66
2022-08-07T03:50:52.106Z,82.51
2022-08-07T03:54:05.771Z,83.62
2022-08-07T03:56:10.639Z,82.08
2022-08-07T03:59:08.664Z,82.97
2022-08-07T04:01:28.835Z,84.04
2022-08-07T04:03:55.628Z,84.68
2022-08-07T04:06:38.024Z,83.51
2022-08-07T04:09:05.863Z,83.94
2022-08-07T04:12:25.501Z,84.69
2022-08-07T04:14:37.631Z,83.83
2022-08-07T04:17:20.149Z,82.54
2022-08-07T04:19:52.011Z,83.39
2022-08-07T04:22:23.507Z,83.15
2022-08-07T04:24:55.949Z,83.21
2022-08-07T04:27:25.634Z,83.44
2022-08-07T04:30:01.963Z,84.07
2022-08-07T04:32:34.475Z,83.49
2022-08-07T04:35:05.781Z,83.72
2022-08-07T04:38:01.146Z,85.18
2022-08-07T04:40:21.192Z,83.35
2022-08-07T04:42:52.336Z,82.71
2022-08-07T04:45:44.478Z,84.48
2022-08-07T04:48:44.831Z,84.20
2022-08-07T04:51:49.304Z,84.58
2022-08-07T04:54:30.027Z,84.52
2022-08-07T04:58:11.765Z,84.45
2022-08-07T05:00:18.663Z,85.44
2022-08-07T05:02:57.070Z,83.72
2022-08-07T05:05:53.113Z,83.97
2022-08-07T05:09:00.169Z,84.60
2022-08-07T05:11:57.560Z,86.30
2022-08-07T05:14:55.527Z,85.41
2022-08-07T05:17:16.199Z,84.57
2022-08-07T05:20:05.360Z,85.13
2022-08-07T05:22:38.973Z,85.54
2022-08-07T05:25:08.761Z,85.89
2022-08-07T05:28:15.928Z,86.12
2022-08-07T05:30:32.614Z,86.90
2022-08-07T05:33:02.583Z,86.41
2022-08-07T05:35:33.457Z,86.67
2022-08-07T05:38:09.025Z,87.30
2022-08-07T05:40:51.444Z,86.84
2022-08-07T05:43:56.458Z,86.75
2022-08-07T05:46:06.898Z,86.64
2022-08-07T05:48:34.258Z,88.90
2022-08-07T05:51:01.910Z,89.36
2022-08-07T05:54:12.002Z,86.72
2022-08-07T05:56:30.023Z,86.77
2022-08-07T05:58:58.992Z,86.44
2022-08-07T06:01:27.561Z,87.44
2022-08-07T06:04:04.644Z,87.09
2022-08-07T06:06:33.545Z,86.49
2022-08-07T06:09:01.256Z,85.68
2022-08-07T06:11:33.466Z,86.32
2022-08-07T06:14:13.032Z,86.21
2022-08-07T06:16:50.292Z,86.04
2022-08-07T06:19:47.979Z,85.82
2022-08-07T06:22:14.890Z,85.07
2022-08-07T06:24:57.708Z,86.44
2022-08-07T06:27:59.819Z,85.02
2022-08-07T06:30:32.322Z,84.92
2022-08-07T06:32:59.390Z,83.24
2022-08-07T06:35:30.618Z,83.63
2022-08-07T06:38:19.886Z,81.78
2022-08-07T06:40:53.227Z,81.70
2022-08-07T06:43:23.625Z,80.62
2022-08-07T06:45:50.921Z,81.27
2022-08-07T06:48:25.163Z,79.86
2022-08-07T06:50:54.912Z,79.78
2022-08-07T06:55:29.352Z,78.87
2022-08-07T06:56:15.434Z,77.31
2022-08-07T07:00:11.592Z,75.90
2022-08-07T07:01:44.026Z,75.61
2022-08-07T07:04:28.122Z,75.18
2022-08-07T07:07:01.869Z,73.84
2022-08-07T07:09:31.206Z,71.89
2022-08-07T07:12:24.775Z,70.80
2022-08-07T07:15:00.534Z,70.97
2022-08-07T07:18:12.184Z,69.83
2022-08-07T07:21:19.518Z,69.47
2022-08-07T07:24:08.229Z,68.72
2022-08-07T07:26:37.728Z,68.96
2022-08-07T07:29:38.674Z,69.68
2022-08-07T07:31:59.306Z,68.16
2022-08-07T07:34:31.917Z,67.17
2022-08-07T07:37:14.618Z,66.18
2022-08-07T07:39:55.258Z,66.19
2022-08-07T07:42:29.979Z,65.48
2022-08-07T07:45:01.993Z,64.17
2022-08-07T07:47:30.330Z,65.10
2022-08-07T07:50:33.285Z,64.93
2022-08-07T07:53:20.447Z,64.16
2022-08-07T07:55:54.824Z,60.40
2022-08-07T07:58:25.433Z,60.86
2022-08-07T08:00:55.800Z,61.68
2022-08-07T08:04:09.299Z,59.69
2022-08-07T08:06:13.118Z,60.40
2022-08-07T08:08:41.830Z,59.86
2022-08-07T08:11:16.049Z,58.55
2022-08-07T08:13:54.331Z,58.73
2022-08-07T08:16:26.332Z,56.70
2022-08-07T08:18:58.361Z,57.94
2022-08-07T08:22:00.451Z,56.83
2022-08-07T08:24:57.348Z,59.54
2022-08-07T08:27:44.048Z,57.26
2022-08-07T08:30:24.909Z,56.38
2022-08-07T08:32:58.861Z,56.20
2022-08-07T08:35:28.908Z,53.63
2022-08-07T08:38:08.229Z,53.35
2022-08-07T08:40:48.110Z,52.80
2022-08-07T08:43:42.847Z,48.14
2022-08-07T08:46:25.597Z,48.13
2022-08-07T08:49:33.514Z,41.59
2022-08-07T08:52:22.484Z,37.99
2022-08-07T08:54:58.108Z,38.67
2022-08-07T08:57:39.463Z,36.63
2022-08-07T09:00:10.521Z,39.79
2022-08-07T09:03:00.960Z,42.87
2022-08-07T09:05:53.522Z,43.93
2022-08-07T09:08:55.557Z,43.80
2022-08-07T09:11:43.798Z,42.85
2022-08-07T09:14:58.815Z,43.27
2022-08-07T09:17:59.596Z,41.59
2022-08-07T09:21:57.811Z,40.52
2022-08-07T09:24:58.995Z,40.99
2022-08-07T09:28:02.886Z,37.02
2022-08-07T09:30:56.716Z,37.21
2022-08-07T09:33:57.044Z,38.02
2022-08-07T09:36:43.004Z,35.14
2022-08-07T09:39:52.832Z,33.95
2022-08-07T09:42:22.960Z,32.26
2022-08-07T09:47:25.279Z,33.03
2022-08-07T09:48:14.471Z,30.98
2022-08-07T09:51:20.233Z,31.48
2022-08-07T09:54:03.402Z,32.10
2022-08-07T09:57:06.973Z,32.88
2022-08-07T10:00:00.284Z,30.62
2022-08-07T10:02:55.020Z,31.74
2022-08-07T10:06:01.305Z,30.88
2022-08-07T10:08:56.693Z,32.17
2022-08-07T10:12:01.963Z,31.62
2022-08-07T10:14:54.220Z,31.11
2022-08-07T10:18:01.538Z,30.82
2022-08-07T10:20:44.420Z,32.81
2022-08-07T10:24:04.734Z,33.47
2022-08-07T10:26:53.018Z,32.92
2022-08-07T10:29:45.921Z,32.10
2022-08-07T10:32:36.540Z,31.11
2022-08-07T10:35:27.261Z,30.86
2022-08-07T10:38:48.394Z,30.56
2022-08-07T10:41:47.325Z,31.54
2022-08-07T10:44:38.686Z,34.78
2022-08-07T10:47:17.778Z,30.25
2022-08-07T10:49:52.895Z,30.97
2022-08-07T10:52:33.966Z,32.53
2022-08-07T10:55:37.659Z,32.47
2022-08-07T10:58:33.184Z,32.69
2022-08-07T11:01:35.483Z,33.70
2022-08-07T11:04:34.586Z,30.91
2022-08-07T11:07:58.551Z,34.01
2022-08-07T11:11:01.792Z,29.77
2022-08-07T11:14:42.545Z,31.42
2022-08-07T11:17:07.410Z,32.75
2022-08-07T11:19:44.602Z,31.85
2022-08-07T11:22:26.642Z,31.53
2022-08-07T11:25:16.437Z,31.36
2022-08-07T11:28:01.349Z,32.85
2022-08-07T11:30:48.504Z,30.70
2022-08-07T11:33:53.601Z,32.45
2022-08-07T11:36:33.694Z,31.85
2022-08-07T11:39:19.451Z,32.26
2022-08-07T11:42:03.057Z,32.17
2022-08-07T11:44:52.683Z,32.97
2022-08-07T11:48:06.115Z,31.96
2022-08-07T11:51:40.668Z,30.67
2022-08-07T11:54:17.824Z,34.70
2022-08-07T11:56:58.516Z,34.69
2022-08-07T12:34:29.926Z,35.52
2022-08-07T12:36:58.811Z,36.74
2022-08-07T12:39:44.334Z,36.30
2022-08-07T12:42:27.145Z,35.74
2022-08-07T12:44:56.154Z,36.43
2022-08-07T12:47:37.929Z,37.63
2022-08-07T12:50:38.589Z,37.16
2022-08-07T12:53:22.374Z,36.74
2022-08-07T12:56:12.437Z,38.06
2022-08-07T12:58:46.785Z,38.11
2022-08-07T13:01:28.196Z,38.14
2022-08-07T13:04:31.838Z,36.33
2022-08-07T13:08:12.065Z,34.29
2022-08-07T13:10:59.390Z,35.35
2022-08-07T13:13:46.645Z,33.90
2022-08-07T13:16:31.208Z,33.41
2022-08-07T13:19:35.158Z,35.18
2022-08-07T13:22:30.846Z,36.90
2022-08-07T13:25:06.872Z,38.18
2022-08-07T13:28:11.433Z,37.45
2022-08-07T13:30:40.811Z,36.78
2022-08-07T13:34:30.946Z,37.25
2022-08-07T13:36:40.559Z,37.45
2022-08-07T13:39:12.990Z,37.22
2022-08-07T13:41:56.901Z,37.02
2022-08-07T13:44:26.852Z,37.67
2022-08-07T13:47:04.730Z,38.97
2022-08-07T13:50:33.174Z,38.97
2022-08-07T13:52:39.589Z,38.15
2022-08-07T13:55:19.619Z,40.41
2022-08-07T13:58:28.133Z,37.97
2022-08-07T14:01:09.355Z,37.30
2022-08-07T14:04:09.582Z,37.73
2022-08-07T14:06:36.974Z,39.60
2022-08-07T14:09:07.149Z,38.47
2022-08-07T14:11:53.630Z,39.73
2022-08-07T14:14:31.461Z,41.00
2022-08-07T14:17:13.201Z,41.21
2022-08-07T14:20:43.566Z,40.34
2022-08-07T14:22:45.637Z,40.67
2022-08-07T14:25:16.271Z,42.74
2022-08-07T14:28:12.930Z,41.03
2022-08-07T14:30:40.546Z,40.96
2022-08-07T14:33:08.470Z,41.01
2022-08-07T14:35:47.491Z,40.48
2022-08-07T14:57:11.686Z,42.88
2022-08-07T15:02:37.322Z,43.92
2022-08-07T15:07:56.513Z,43.12
2022-08-07T15:10:27.218Z,42.74
2022-08-07T15:15:53.617Z,43.25
2022-08-07T15:18:34.889Z,43.43
2022-08-07T15:21:58.576Z,43.21
2022-08-07T15:26:59.508Z,44.40
2022-08-07T15:30:10.226Z,44.98
2022-08-07T15:32:39.611Z,45.13
2022-08-07T15:43:53.558Z,45.89
2022-08-07T15:46:31.902Z,45.97
2022-08-07T15:49:12.780Z,46.13
2022-08-07T15:54:39.446Z,47.17
2022-08-07T15:57:27.945Z,46.84
2022-08-07T16:00:04.390Z,47.56
2022-08-07T16:02:41.218Z,47.77
2022-08-07T16:05:15.152Z,47.91
2022-08-07T16:08:30.742Z,47.57
2022-08-07T16:11:28.706Z,47.82
2022-08-07T16:14:07.062Z,46.48
2022-08-07T16:16:49.691Z,45.40
2022-08-07T16:19:41.781Z,45.80
2022-08-07T16:22:36.184Z,45.35
2022-08-07T16:25:54.649Z,45.21
2022-08-07T16:29:18.898Z,44.62
2022-08-07T16:31:57.430Z,44.25
2022-08-07T16:34:48.353Z,44.46
2022-08-07T16:38:03.235Z,44.93
2022-08-07T16:40:30.945Z,44.06
2022-08-07T16:43:15.570Z,43.94
2022-08-07T16:46:21.213Z,44.55
2022-08-07T16:50:27.449Z,44.11
2022-08-07T16:52:51.513Z,44.75
2022-08-07T16:55:08.377Z,44.78
2022-08-07T16:58:03.699Z,45.23
2022-08-07T17:00:41.751Z,44.82
2022-08-07T17:03:11.439Z,44.71
2022-08-07T17:06:29.130Z,45.75
2022-08-07T17:09:15.775Z,45.61
2022-08-07T17:12:03.912Z,45.73
2022-08-07T17:14:57.716Z,45.61
2022-08-07T17:17:49.102Z,45.80
2022-08-07T17:20:41.725Z,45.95
2022-08-07T17:23:32.395Z,45.75
2022-08-07T17:26:50.142Z,46.50
2022-08-07T17:30:15.858Z,47.35
2022-08-07T17:34:10.285Z,47.57
2022-08-07T17:35:57.647Z,47.71
2022-08-07T17:38:33.575Z,47.96
2022-08-07T17:42:04.893Z,47.91
2022-08-07T17:44:42.793Z,48.41
2022-08-07T17:47:42.059Z,48.76
2022-08-07T17:50:22.592Z,48.04
2022-08-07T17:53:59.574Z,48.16
2022-08-07T17:56:25.961Z,49.70
2022-08-07T17:58:56.864Z,49.31
2022-08-07T18:01:40.658Z,49.21
2022-08-07T18:04:16.251Z,49.76
2022-08-07T18:07:18.994Z,49.71
2022-08-07T18:10:04.739Z,50.98
2022-08-07T18:12:42.001Z,50.53
2022-08-07T18:15:15.816Z,51.15
2022-08-07T18:18:46.176Z,51.45
2022-08-07T18:21:07.391Z,52.31
2022-08-07T18:23:58.458Z,52.51
2022-08-07T18:26:51.044Z,53.69
2022-08-07T18:30:05.977Z,53.15
2022-08-07T18:32:41.737Z,53.26
2022-08-07T18:35:16.020Z,53.61
2022-08-07T18:38:56.528Z,54.61
2022-08-07T18:41:20.928Z,54.87
2022-08-07T18:44:03.573Z,54.52
2022-08-07T18:46:36.494Z,55.42
2022-08-07T18:50:33.149Z,55.34
2022-08-07T18:52:55.091Z,56.17
2022-08-07T18:55:41.770Z,56.44
2022-08-07T18:58:31.376Z,56.33
2022-08-07T19:01:03.829Z,56.36
2022-08-07T19:03:52.567Z,56.29
2022-08-07T19:06:48.186Z,56.43
2022-08-07T19:09:56.353Z,56.65
2022-08-07T19:12:53.484Z,57.02
2022-08-07T19:16:04.558Z,56.85
2022-08-07T19:18:34.513Z,57.37
2022-08-07T19:21:43.932Z,58.12
2022-08-07T19:24:30.980Z,57.66
2022-08-07T19:28:29.854Z,55.83
2022-08-07T19:31:01.229Z,54.84
2022-08-07T19:32:46.290Z,54.49
2022-08-07T19:35:25.746Z,54.80
2022-08-07T19:37:58.748Z,56.12
2022-08-07T19:40:31.370Z,55.06
2022-08-07T19:43:02.275Z,56.67
2022-08-07T19:46:05.615Z,55.59
2022-08-07T19:48:24.189Z,55.63
2022-08-07T19:50:53.679Z,55.82
2022-08-07T19:54:44.363Z,55.08
2022-08-07T19:57:56.881Z,55.29
2022-08-07T19:58:58.232Z,55.07
2022-08-07T20:01:52.877Z,56.07
2022-08-07T20:04:31.857Z,55.83
2022-08-07T20:07:09.242Z,56.22
2022-08-07T20:10:36.214Z,57.03
2022-08-07T20:12:43.252Z,56.56
2022-08-07T20:15:21.882Z,57.87
2022-08-07T20:18:01.271Z,59.63
2022-08-07T20:20:31.896Z,59.82
2022-08-07T20:23:23.087Z,61.51
2022-08-07T20:25:55.849Z,61.64
2022-08-07T20:28:29.680Z,63.16
2022-08-07T20:30:58.234Z,64.96
2022-08-07T20:33:37.581Z,66.53
2022-08-07T20:36:07.722Z,67.33
2022-08-07T20:38:35.862Z,69.37
2022-08-07T20:41:40.761Z,71.44
2022-08-07T20:44:12.857Z,72.66
2022-08-07T20:46:43.909Z,72.08
2022-08-07T20:49:58.400Z,74.63
2022-08-07T20:52:09.331Z,74.16
2022-08-07T20:54:53.251Z,75.02
2022-08-07T20:57:47.544Z,76.30
2022-08-07T21:00:46.465Z,75.68
2022-08-07T21:03:37.735Z,76.72
2022-08-07T21:06:21.837Z,77.74
2022-08-07T21:09:03.485Z,78.82
2022-08-07T21:11:50.411Z,78.66
2022-08-07T21:14:31.993Z,80.23
2022-08-07T21:18:02.919Z,81.15
2022-08-07T21:20:04.424Z,79.61
2022-08-07T21:22:39.485Z,83.65
2022-08-07T21:25:39.096Z,84.44
2022-08-07T21:28:09.095Z,85.89
2022-08-07T21:30:43.385Z,85.52
2022-08-07T21:33:29.384Z,86.13
2022-08-07T21:36:32.010Z,86.87
2022-08-07T21:39:47.889Z,86.70
2022-08-07T21:45:42.113Z,84.82
2022-08-07T21:48:28.034Z,86.69
2022-08-07T21:50:59.382Z,87.09
2022-08-07T21:53:32.606Z,88.63
2022-08-07T21:56:36.148Z,89.28
2022-08-07T21:59:21.407Z,89.51
2022-08-07T22:02:10.825Z,89.00
2022-08-07T22:04:51.300Z,91.08
2022-08-07T22:07:42.857Z,91.44
2022-08-07T22:10:18.241Z,92.13
2022-08-07T22:12:45.239Z,93.77
2022-08-07T22:16:39.713Z,94.71
2022-08-07T22:18:24.606Z,96.44
2022-08-07T22:21:06.262Z,96.18
2022-08-07T22:23:57.350Z,95.97
2022-08-07T22:26:35.519Z,97.58
2022-08-07T22:29:13.966Z,98.37
2022-08-07T22:31:59.905Z,100.00
2022-08-07T22:34:49.793Z,100.00
2022-08-07T22:38:02.931Z,100.00
2022-08-07T22:40:50.049Z,100.00
2022-08-07T22:43:41.810Z,100.00
2022-08-07T22:47:06.440Z,100.00
2022-08-07T22:49:37.966Z,99.87
2022-08-07T22:52:36.925Z,100.00
2022-08-07T22:55:17.546Z,100.00
2022-08-07T22:58:04.455Z,100.00
2022-08-07T23:00:46.001Z,100.00
2022-08-07T23:03:58.457Z,100.00
2022-08-07T23:06:34.848Z,100.00
2022-08-07T23:10:03.889Z,100.00
2022-08-07T23:12:39.192Z,100.00
2022-08-07T23:16:06.089Z,100.00
2022-08-07T23:19:11.253Z,100.00
2022-08-07T23:21:52.129Z,100.00
2022-08-07T23:24:45.615Z,100.00
2022-08-07T23:27:34.509Z,100.00
2022-08-07T23:30:37.524Z,100.00
2022-08-07T23:34:35.254Z,100.00
2022-08-07T23:37:19.573Z,100.00
2022-08-07T23:39:42.599Z,100.00
2022-08-07T23:42:30.420Z,100.00
2022-08-07T23:45:33.207Z,100.00
2022-08-07T23:48:31.553Z,100.00
2022-08-07T23:53:00.113Z,100.00
2022-08-07T23:54:28.639Z,100.00
2022-08-07T23:57:34.695Z,100.00
